Time;durP1;ratioP1;P1;durP2;ratioP2;P2;SDS_P1;SDS_P2;PMS_P1;PMS_P2;Temp;Humidity;BMP_temperature;BMP_pressure;BME280_temperature;BME280_humidity;BME280_pressure;Samples;Min_cycle;Max_cycle;Signal;HPM_P1;HPM_P2
2022/07/27 00:00:53;;;;;;;;;;;;;;;;;;5114688;28;20011;-77
2022/07/27 00:03:19;;;;;;;;;;;;;;;;;;5113829;28;19983;-77
2022/07/27 00:05:46;;;;;;;;;;;;;;;;;;5116291;28;20018;-77
2022/07/27 00:08:12;;;;;;;;;;;;;;;;;;5114273;28;20010;-77
2022/07/27 00:10:39;;;;;;;;;;;;;;;;;;5114738;28;19936;-76
2022/07/27 00:13:06;;;;;;;;;;;;;;;;;;5114890;28;20014;-78
2022/07/27 00:15:32;;;;;;;;;;;;;;;;;;5114994;28;20336;-78
2022/07/27 00:18:00;;;;;;;;;;;;;;;;;;5115154;28;20016;-78
2022/07/27 00:20:27;;;;;;;;;;;;;;;;;;5115379;28;19963;-77
2022/07/27 00:22:54;;;;;;;;;;;;;;;;;;5114916;28;19924;-77
2022/07/27 00:25:20;;;;;;;;;;;;;;;;;;5114707;28;19930;-77
2022/07/27 00:27:46;;;;;;;;;;;;;;;;;;5114608;28;20019;-76
2022/07/27 00:30:13;;;;;;;;;;;;;;;;;;5115408;28;20390;-77
2022/07/27 00:32:39;;;;;;;;;;;;;;;;;;5114299;28;20367;-77
2022/07/27 00:35:08;;;;;;;;;;;;;;;;;;5114120;28;20000;-77
2022/07/27 00:37:35;;;;;;;;;;;;;;;;;;5113626;28;20119;-77
2022/07/27 00:40:01;;;;;;;;;;;;;;;;;;5113915;28;19924;-78
2022/07/27 00:42:28;;;;;;;;;;;;;;;;;;5114892;28;19934;-77
2022/07/27 00:44:55;;;;;;;;;;;;;;;;;;5115096;28;19924;-77
2022/07/27 00:47:22;;;;;;;;;;;;;;;;;;5114969;28;20010;-78
2022/07/27 00:49:48;;;;;;;;;;;;;;;;;;5115212;28;20348;-78
2022/07/27 00:52:16;;;;;;;;;;;;;;;;;;5114947;28;19924;-78
2022/07/27 00:54:43;;;;;;;;;;;;;;;;;;5114752;28;19925;-78
2022/07/27 00:57:10;;;;;;;;;;;;;;;;;;5114198;28;20327;-78
2022/07/27 00:59:36;;;;;;;;;;;;;;;;;;5115080;28;19970;-78
2022/07/27 01:02:03;;;;;;;;;;;;;;;;;;5115088;28;20014;-78
2022/07/27 01:04:29;;;;;;;;;;;;;;;;;;5116711;28;20409;-77
2022/07/27 01:06:56;;;;;;;;;;;;;;;;;;5113991;28;20436;-78
2022/07/27 01:12:09;;;;;;;;;;;;;;;;;;5114406;28;19976;-77
2022/07/27 01:14:37;;;;;;;;;;;;;;;;;;5114396;28;20015;-78
2022/07/27 01:17:04;;;;;;;;;;;;;;;;;;5115222;28;20000;-78
2022/07/27 01:19:31;;;;;;;;;;;;;;;;;;5115467;28;19923;-77
2022/07/27 01:21:58;;;;;;;;;;;;;;;;;;5114507;28;20105;-77
2022/07/27 01:24:25;;;;;;;;;;;;;;;;;;5114337;28;20161;-77
2022/07/27 01:26:51;;;;;;;;;;;;;;;;;;5114163;28;20003;-78
2022/07/27 01:32:21;;;;;;;;;;;;;;;;;;5115001;28;20376;-77
2022/07/27 01:34:47;;;;;;;;;;;;;;;;;;5091878;28;19932;-77
2022/07/27 01:37:15;;;;;;;;;;;;;;;;;;5094340;28;19977;-78
2022/07/27 01:39:42;;;;;;;;;;;;;;;;;;5093883;28;19929;-78
2022/07/27 01:42:08;;;;;;;;;;;;;;;;;;5093538;28;19924;-77
2022/07/27 01:44:35;;;;;;;;;;;;;;;;;;5093118;28;19931;-77
2022/07/27 01:47:01;;;;;;;;;;;;;;;;;;5093064;28;20341;-77
2022/07/27 01:49:28;;;;;;;;;;;;;;;;;;5095874;28;19928;-77
2022/07/27 01:51:54;;;;;;;;;;;;;;;;;;5093381;28;19931;-78
2022/07/27 01:54:22;;;;;;;;;;;;;;;;;;5096563;28;19924;-78
2022/07/27 01:56:48;;;;;;;;;;;;;;;;;;5097509;28;19944;-78
2022/07/27 01:59:15;;;;;;;;;;;;;;;;;;5097098;28;19967;-77
2022/07/27 02:01:41;;;;;;;;;;;;;;;;;;5115240;28;20378;-77
2022/07/27 02:04:07;;;;;;;;;;;;;;;;;;5119934;28;19963;-77
2022/07/27 02:06:34;;;;;;;;;;;;;;;;;;5121961;28;19924;-77
2022/07/27 02:09:00;;;;;;;;;;;;;;;;;;5118154;28;19923;-78
2022/07/27 02:14:12;;;;;;;;;;;;;;;;;;5118148;28;19974;-77
2022/07/27 02:16:38;;;;;;;;;;;;;;;;;;5118521;28;19928;-78
2022/07/27 02:19:05;;;;;;;;;;;;;;;;;;5117105;28;19924;-78
2022/07/27 02:21:31;;;;;;;;;;;;;;;;;;5116720;28;19946;-78
2022/07/27 02:23:58;;;;;;;;;;;;;;;;;;5116345;28;20014;-78
2022/07/27 02:26:24;;;;;;;;;;;;;;;;;;5116412;28;19967;-79
2022/07/27 02:28:52;;;;;;;;;;;;;;;;;;5116905;28;19923;-78
2022/07/27 02:31:18;;;;;;;;;;;;;;;;;;5116986;28;19924;-78
2022/07/27 02:33:45;;;;;;;;;;;;;;;;;;5117342;28;19924;-77
2022/07/27 02:36:11;;;;;;;;;;;;;;;;;;5117056;28;19924;-77
2022/07/27 02:38:38;;;;;;;;;;;;;;;;;;5116624;28;19974;-77
2022/07/27 02:41:04;;;;;;;;;;;;;;;;;;5116584;28;20015;-77
2022/07/27 02:43:31;;;;;;;;;;;;;;;;;;5116591;28;20042;-77
2022/07/27 02:45:59;;;;;;;;;;;;;;;;;;5116732;28;19927;-78
2022/07/27 02:48:25;;;;;;;;;;;;;;;;;;5116588;28;19923;-77
2022/07/27 02:50:52;;;;;;;;;;;;;;;;;;5116602;28;19959;-77
2022/07/27 02:53:18;;;;;;;;;;;;;;;;;;5122275;28;19963;-77
2022/07/27 02:55:44;;;;;;;;;;;;;;;;;;5125231;28;20330;-77
2022/07/27 02:58:11;;;;;;;;;;;;;;;;;;5121737;28;19932;-78
2022/07/27 03:00:37;;;;;;;;;;;;;;;;;;5119397;28;19966;-77
2022/07/27 03:03:05;;;;;;;;;;;;;;;;;;5119659;28;20019;-77
2022/07/27 03:05:32;;;;;;;;;;;;;;;;;;5117939;28;19931;-77
2022/07/27 03:07:59;;;;;;;;;;;;;;;;;;5116601;28;19969;-77
2022/07/27 03:10:25;;;;;;;;;;;;;;;;;;5118714;28;19924;-77
2022/07/27 03:12:52;;;;;;;;;;;;;;;;;;5119153;28;19974;-77
2022/07/27 03:15:18;;;;;;;;;;;;;;;;;;5126383;28;19924;-78
2022/07/27 03:17:45;;;;;;;;;;;;;;;;;;5132306;28;19970;-78
2022/07/27 03:20:13;;;;;;;;;;;;;;;;;;5127342;28;19959;-77
2022/07/27 03:22:39;;;;;;;;;;;;;;;;;;5124969;28;20445;-77
2022/07/27 03:25:06;;;;;;;;;;;;;;;;;;5118553;28;19923;-77
2022/07/27 03:27:33;;;;;;;;;;;;;;;;;;5116836;28;20473;-78
2022/07/27 03:29:59;;;;;;;;;;;;;;;;;;5119244;28;20441;-78
2022/07/27 03:32:25;;;;;;;;;;;;;;;;;;5121854;28;20023;-78
2022/07/27 03:34:52;;;;;;;;;;;;;;;;;;5124620;28;19978;-77
2022/07/27 03:37:20;;;;;;;;;;;;;;;;;;5128242;28;19974;-77
2022/07/27 03:39:46;;;;;;;;;;;;;;;;;;5119715;28;19998;-77
2022/07/27 03:42:13;;;;;;;;;;;;;;;;;;5125726;28;19987;-77
2022/07/27 03:44:39;;;;;;;;;;;;;;;;;;5126456;28;19977;-77
2022/07/27 03:47:06;;;;;;;;;;;;;;;;;;5122505;28;19965;-77
2022/07/27 03:49:32;;;;;;;;;;;;;;;;;;5121111;28;19971;-78
2022/07/27 03:51:59;;;;;;;;;;;;;;;;;;5125671;28;20018;-77
2022/07/27 03:54:26;;;;;;;;;;;;;;;;;;5120024;28;20018;-77
2022/07/27 03:56:53;;;;;;;;;;;;;;;;;;5122286;28;20010;-78
2022/07/27 03:59:19;;;;;;;;;;;;;;;;;;5119811;28;20031;-77
2022/07/27 04:01:46;;;;;;;;;;;;;;;;;;5115807;28;19969;-77
2022/07/27 04:04:13;;;;;;;;;;;;;;;;;;5115127;28;20010;-77
2022/07/27 04:06:39;;;;;;;;;;;;;;;;;;5115280;28;20304;-77
2022/07/27 04:09:06;;;;;;;;;;;;;;;;;;5115008;28;20006;-78
2022/07/27 04:11:34;;;;;;;;;;;;;;;;;;5114792;28;20405;-77
2022/07/27 04:14:00;;;;;;;;;;;;;;;;;;5115961;28;20289;-75
2022/07/27 04:16:27;;;;;;;;;;;;;;;;;;5118965;28;19990;-76
2022/07/27 04:18:53;;;;;;;;;;;;;;;;;;5119997;28;20458;-75
2022/07/27 04:21:20;;;;;;;;;;;;;;;;;;5119429;28;20405;-75
2022/07/27 04:23:46;;;;;;;;;;;;;;;;;;5119467;28;19930;-76
2022/07/27 04:26:12;;;;;;;;;;;;;;;;;;5116239;28;19974;-77
2022/07/27 04:28:40;;;;;;;;;;;;;;;;;;5114330;28;20018;-76
2022/07/27 04:31:07;;;;;;;;;;;;;;;;;;5113956;28;20014;-78
2022/07/27 04:33:33;;;;;;;;;;;;;;;;;;5115164;28;20399;-77
2022/07/27 04:36:00;;;;;;;;;;;;;;;;;;5118686;28;19924;-78
2022/07/27 04:38:26;;;;;;;;;;;;;;;;;;5118051;28;19987;-78
2022/07/27 04:40:52;;;;;;;;;;;;;;;;;;5114644;28;20001;-77
2022/07/27 04:43:19;;;;;;;;;;;;;;;;;;5114624;28;19963;-77
2022/07/27 04:45:47;;;;;;;;;;;;;;;;;;5115494;28;20007;-78
2022/07/27 04:48:13;;;;;;;;;;;;;;;;;;5117318;28;19975;-77
2022/07/27 04:50:40;;;;;;;;;;;;;;;;;;5115318;28;19930;-77
2022/07/27 04:53:07;;;;;;;;;;;;;;;;;;5114211;28;19939;-77
2022/07/27 04:55:33;;;;;;;;;;;;;;;;;;5114051;28;19930;-77
2022/07/27 04:58:00;;;;;;;;;;;;;;;;;;5113638;28;20014;-77
2022/07/27 05:00:26;;;;;;;;;;;;;;;;;;5113610;28;19934;-77
2022/07/27 05:02:54;;;;;;;;;;;;;;;;;;5114046;28;20019;-77
2022/07/27 05:05:20;;;;;;;;;;;;;;;;;;5114933;28;20018;-78
2022/07/27 05:07:47;;;;;;;;;;;;;;;;;;5114910;28;19930;-77
2022/07/27 05:10:13;;;;;;;;;;;;;;;;;;5114897;28;19932;-77
2022/07/27 05:12:40;;;;;;;;;;;;;;;;;;5114758;28;19924;-77
2022/07/27 05:15:07;;;;;;;;;;;;;;;;;;5113829;28;20287;-77
2022/07/27 05:17:34;;;;;;;;;;;;;;;;;;5112595;28;20378;-77
2022/07/27 05:20:02;;;;;;;;;;;;;;;;;;5113696;28;19930;-76
2022/07/27 05:22:29;;;;;;;;;;;;;;;;;;5113181;28;19934;-77
2022/07/27 05:24:55;;;;;;;;;;;;;;;;;;5113325;28;19963;-76
2022/07/27 05:27:22;;;;;;;;;;;;;;;;;;5126398;22;19924;-75
2022/07/27 05:29:49;;;;;;;;;;;;;;;;;;5085374;28;20011;-75
2022/07/27 05:32:15;;;;;;;;;;;;;;;;;;5092699;28;19993;-74
2022/07/27 05:34:44;;;;;;;;;;;;;;;;;;5093351;28;20227;-76
2022/07/27 05:37:12;;;;;;;;;;;;;;;;;;5092978;28;19928;-75
2022/07/27 05:39:41;;;;;;;;;;;;;;;;;;5072252;28;20023;-75
2022/07/27 05:42:07;;;;;;;;;;;;;;;;;;5072044;28;19954;-76
2022/07/27 05:44:34;;;;;;;;;;;;;;;;;;5072176;28;20258;-74
2022/07/27 05:47:00;;;;;;;;;;;;;;;;;;5072238;28;19950;-74
2022/07/27 05:49:27;;;;;;;;;;;;;;;;;;5071579;28;20065;-75
2022/07/27 05:51:53;;;;;;;;;;;;;;;;;;5072092;28;20007;-75
2022/07/27 05:54:21;;;;;;;;;;;;;;;;;;5072563;28;20011;-75
2022/07/27 05:56:48;;;;;;;;;;;;;;;;;;5071859;28;20019;-74
2022/07/27 05:59:14;;;;;;;;;;;;;;;;;;5072289;28;20011;-75
2022/07/27 06:01:41;;;;;;;;;;;;;;;;;;5053737;28;20452;-75
2022/07/27 06:04:07;;;;;;;;;;;;;;;;;;5052436;28;19928;-74
2022/07/27 06:09:17;;;;;;;;;;;;;;;;;;5052102;28;19932;-75
2022/07/27 06:11:45;;;;;;;;;;;;;;;;;;5052331;28;19932;-75
2022/07/27 06:14:12;;;;;;;;;;;;;;;;;;5052503;28;20016;-75
2022/07/27 06:16:38;;;;;;;;;;;;;;;;;;5052938;28;19964;-75
2022/07/27 06:19:05;;;;;;;;;;;;;;;;;;5053278;28;20027;-75
2022/07/27 06:21:31;;;;;;;;;;;;;;;;;;5051980;28;19947;-75
2022/07/27 06:23:58;;;;;;;;;;;;;;;;;;5052043;28;20008;-75
2022/07/27 06:26:24;;;;;;;;;;;;;;;;;;5051542;28;19925;-74
2022/07/27 06:28:57;;;;;;;;;;;;;;;;;;5052149;28;19975;-75
2022/07/27 06:31:24;;;;;;;;;;;;;;;;;;5051924;28;19956;-75
2022/07/27 06:33:50;;;;;;;;;;;;;;;;;;5052011;28;19925;-75
2022/07/27 06:36:16;;;;;;;;;;;;;;;;;;5051597;28;20024;-74
2022/07/27 06:38:43;;;;;;;;;;;;;;;;;;5052228;28;19979;-74
2022/07/27 06:41:09;;;;;;;;;;;;;;;;;;5055464;28;19929;-74
2022/07/27 06:43:36;;;;;;;;;;;;;;;;;;5055716;28;20008;-75
2022/07/27 06:46:06;;;;;;;;;;;;;;;;;;5055421;28;19931;-76
2022/07/27 06:48:32;;;;;;;;;;;;;;;;;;5055495;28;20338;-76
2022/07/27 06:50:59;;;;;;;;;;;;;;;;;;5056221;28;20019;-76
2022/07/27 06:53:26;;;;;;;;;;;;;;;;;;5056512;28;19925;-75
2022/07/27 06:55:52;;;;;;;;;;;;;;;;;;5055511;28;20024;-76
2022/07/27 06:58:19;;;;;;;;;;;;;;;;;;5055251;28;19964;-76
2022/07/27 07:00:46;;;;;;;;;;;;;;;;;;5065322;28;20015;-76
2022/07/27 07:03:13;;;;;;;;;;;;;;;;;;5075280;28;19975;-75
2022/07/27 07:05:42;;;;;;;;;;;;;;;;;;5075431;28;19924;-75
2022/07/27 07:08:10;;;;;;;;;;;;;;;;;;5074356;28;19934;-75
2022/07/27 07:10:37;;;;;;;;;;;;;;;;;;5074447;28;19979;-76
2022/07/27 07:13:04;;;;;;;;;;;;;;;;;;5070828;28;19924;-75
2022/07/27 07:15:30;;;;;;;;;;;;;;;;;;5051733;28;19965;-75
2022/07/27 07:17:57;;;;;;;;;;;;;;;;;;5052849;28;19925;-75
2022/07/27 07:20:25;;;;;;;;;;;;;;;;;;5052635;28;19964;-75
2022/07/27 07:22:51;;;;;;;;;;;;;;;;;;5052817;28;20008;-75
2022/07/27 07:25:18;;;;;;;;;;;;;;;;;;5053060;28;20403;-75
2022/07/27 07:27:44;;;;;;;;;;;;;;;;;;5052535;28;20547;-75
2022/07/27 07:30:11;;;;;;;;;;;;;;;;;;5052525;28;20016;-75
2022/07/27 07:32:38;;;;;;;;;;;;;;;;;;5052538;28;19933;-75
2022/07/27 07:35:05;;;;;;;;;;;;;;;;;;5052643;28;20566;-75
2022/07/27 07:37:33;;;;;;;;;;;;;;;;;;5052510;28;19979;-75
2022/07/27 07:40:00;;;;;;;;;;;;;;;;;;5052419;28;19925;-75
2022/07/27 07:42:26;;;;;;;;;;;;;;;;;;5052104;28;19986;-75
2022/07/27 07:44:53;;;;;;;;;;;;;;;;;;5052463;28;20379;-75
2022/07/27 07:47:19;;;;;;;;;;;;;;;;;;5052088;28;19971;-75
2022/07/27 07:49:46;;;;;;;;;;;;;;;;;;5052446;28;19933;-76
2022/07/27 07:52:13;;;;;;;;;;;;;;;;;;5056150;28;19925;-75
2022/07/27 07:54:40;;;;;;;;;;;;;;;;;;5052566;28;19931;-75
2022/07/27 07:57:07;;;;;;;;;;;;;;;;;;5052082;28;20486;-75
2022/07/27 07:59:33;;;;;;;;;;;;;;;;;;5052202;28;20517;-75
2022/07/27 08:02:02;;;;;;;;;;;;;;;;;;5072307;28;20482;-74
2022/07/27 08:04:28;;;;;;;;;;;;;;;;;;5072913;28;19928;-75
2022/07/27 08:06:55;;;;;;;;;;;;;;;;;;5070012;28;19958;-75
2022/07/27 08:09:25;;;;;;;;;;;;;;;;;;5051742;28;19960;-75
2022/07/27 08:11:53;;;;;;;;;;;;;;;;;;5056737;28;19925;-75
2022/07/27 08:14:20;;;;;;;;;;;;;;;;;;5052564;28;19948;-75
2022/07/27 08:16:46;;;;;;;;;;;;;;;;;;5051347;28;19994;-75
2022/07/27 08:19:13;;;;;;;;;;;;;;;;;;5052112;28;19968;-75
2022/07/27 08:21:39;;;;;;;;;;;;;;;;;;5051610;28;19928;-75
2022/07/27 08:24:06;;;;;;;;;;;;;;;;;;5052059;28;19925;-75
2022/07/27 08:26:32;;;;;;;;;;;;;;;;;;5051357;28;19925;-75
2022/07/27 08:29:00;;;;;;;;;;;;;;;;;;5051099;28;20424;-75
2022/07/27 08:31:27;;;;;;;;;;;;;;;;;;5050834;28;19997;-75
2022/07/27 08:33:53;;;;;;;;;;;;;;;;;;5051828;28;19960;-75
2022/07/27 08:36:20;;;;;;;;;;;;;;;;;;5051386;28;19935;-76
2022/07/27 08:38:46;;;;;;;;;;;;;;;;;;5050949;28;19990;-75
2022/07/27 08:41:14;;;;;;;;;;;;;;;;;;5050798;28;19932;-75
2022/07/27 08:43:42;;;;;;;;;;;;;;;;;;5050880;28;19948;-75
2022/07/27 08:46:11;;;;;;;;;;;;;;;;;;5050440;28;20101;-75
2022/07/27 08:48:38;;;;;;;;;;;;;;;;;;5050714;28;19975;-75
2022/07/27 08:51:06;;;;;;;;;;;;;;;;;;5050885;28;19925;-75
2022/07/27 08:53:33;;;;;;;;;;;;;;;;;;5051080;28;19928;-75
2022/07/27 08:55:59;;;;;;;;;;;;;;;;;;5050799;28;20344;-75
2022/07/27 08:58:26;;;;;;;;;;;;;;;;;;5050695;28;19972;-75
2022/07/27 09:00:53;;;;;;;;;;;;;;;;;;5061598;28;20003;-75
2022/07/27 09:03:22;;;;;;;;;;;;;;;;;;5070601;28;19924;-75
2022/07/27 09:05:49;;;;;;;;;;;;;;;;;;5070761;28;20458;-75
2022/07/27 09:08:16;;;;;;;;;;;;;;;;;;5070105;28;19963;-76
2022/07/27 09:10:43;;;;;;;;;;;;;;;;;;5070465;28;19968;-74
2022/07/27 09:13:17;;;;;;;;;;;;;;;;;;5070740;28;20693;-75
2022/07/27 09:15:45;;;;;;;;;;;;;;;;;;5070462;28;19924;-75
2022/07/27 09:18:17;;;;;;;;;;;;;;;;;;5070251;28;20023;-75
2022/07/27 09:20:45;;;;;;;;;;;;;;;;;;5070501;28;20357;-75
2022/07/27 09:23:11;;;;;;;;;;;;;;;;;;5070155;28;19928;-75
2022/07/27 09:25:38;;;;;;;;;;;;;;;;;;5070328;28;19935;-75
2022/07/27 09:28:05;;;;;;;;;;;;;;;;;;5070022;28;20007;-74
2022/07/27 09:30:32;;;;;;;;;;;;;;;;;;5070164;28;19940;-75
2022/07/27 09:32:59;;;;;;;;;;;;;;;;;;5070370;28;19959;-74
2022/07/27 09:35:28;;;;;;;;;;;;;;;;;;5070131;28;20359;-74
2022/07/27 09:37:56;;;;;;;;;;;;;;;;;;5069796;28;19972;-74
2022/07/27 09:40:24;;;;;;;;;;;;;;;;;;5070607;28;19931;-75
2022/07/27 09:43:05;;;;;;;;;;;;;;;;;;5070440;28;19925;-74
2022/07/27 09:45:33;;;;;;;;;;;;;;;;;;5070591;28;19979;-74
2022/07/27 09:48:06;;;;;;;;;;;;;;;;;;5069723;28;20440;-75
2022/07/27 09:50:33;;;;;;;;;;;;;;;;;;5070254;28;19925;-75
2022/07/27 09:53:12;;;;;;;;;;;;;;;;;;5071498;28;20377;-75
2022/07/27 09:55:40;;;;;;;;;;;;;;;;;;5070748;28;19967;-74
2022/07/27 09:58:06;;;;;;;;;;;;;;;;;;5069795;28;20437;-75
2022/07/27 10:00:33;;;;;;;;;;;;;;;;;;5061221;28;20011;-75
2022/07/27 10:02:59;;;;;;;;;;;;;;;;;;5049807;28;20434;-75
2022/07/27 10:05:26;;;;;;;;;;;;;;;;;;5050188;28;19968;-75
2022/07/27 10:07:54;;;;;;;;;;;;;;;;;;5049968;28;19931;-74
2022/07/27 10:10:22;;;;;;;;;;;;;;;;;;5050043;28;19925;-74
2022/07/27 10:12:49;;;;;;;;;;;;;;;;;;5049799;28;19983;-75
2022/07/27 10:15:15;;;;;;;;;;;;;;;;;;5052403;28;20019;-75
2022/07/27 10:17:43;;;;;;;;;;;;;;;;;;5053686;28;20020;-75
2022/07/27 10:20:11;;;;;;;;;;;;;;;;;;5053829;28;19971;-75
2022/07/27 10:22:50;;;;;;;;;;;;;;;;;;5053752;28;19964;-76
2022/07/27 10:25:17;;;;;;;;;;;;;;;;;;5053566;28;20358;-75
2022/07/27 10:27:48;;;;;;;;;;;;;;;;;;5053050;28;19924;-76
2022/07/27 10:30:15;;;;;;;;;;;;;;;;;;5053252;28;19931;-73
2022/07/27 10:32:43;;;;;;;;;;;;;;;;;;5053530;28;19925;-73
2022/07/27 10:35:31;;;;;;;;;;;;;;;;;;5053440;28;19925;-74
2022/07/27 10:38:08;;;;;;;;;;;;;;;;;;5053117;28;19979;-74
2022/07/27 10:40:34;;;;;;;;;;;;;;;;;;5052999;28;20015;-74
2022/07/27 10:43:07;;;;;;;;;;;;;;;;;;5053549;28;20019;-74
2022/07/27 10:45:43;;;;;;;;;;;;;;;;;;5053502;28;19959;-74
2022/07/27 10:48:33;;;;;;;;;;;;;;;;;;5053162;28;20267;-75
2022/07/27 10:51:00;;;;;;;;;;;;;;;;;;5053016;28;19951;-74
2022/07/27 10:53:32;;;;;;;;;;;;;;;;;;5053510;28;19932;-74
2022/07/27 10:55:59;;;;;;;;;;;;;;;;;;5052850;28;20023;-74
2022/07/27 10:58:50;;;;;;;;;;;;;;;;;;5053025;28;20019;-74
2022/07/27 11:01:22;;;;;;;;;;;;;;;;;;5068509;28;20518;-74
2022/07/27 11:03:52;;;;;;;;;;;;;;;;;;5074361;28;19980;-74
2022/07/27 11:06:23;;;;;;;;;;;;;;;;;;5072856;28;19928;-74
2022/07/27 11:08:50;;;;;;;;;;;;;;;;;;5072991;28;20011;-74
2022/07/27 11:11:18;;;;;;;;;;;;;;;;;;5073483;28;19974;-75
2022/07/27 11:13:45;;;;;;;;;;;;;;;;;;5073008;28;19925;-74
2022/07/27 11:16:12;;;;;;;;;;;;;;;;;;5072671;28;19979;-74
2022/07/27 11:18:41;;;;;;;;;;;;;;;;;;5072617;28;20019;-74
2022/07/27 11:21:14;;;;;;;;;;;;;;;;;;5072588;28;20031;-74
2022/07/27 11:23:41;;;;;;;;;;;;;;;;;;5072544;28;19932;-74
2022/07/27 11:26:07;;;;;;;;;;;;;;;;;;5070794;28;19978;-74
2022/07/27 11:28:35;;;;;;;;;;;;;;;;;;5086547;22;19963;-75
2022/07/27 11:31:01;;;;;;;;;;;;;;;;;;5099312;28;19924;-76
2022/07/27 11:33:28;;;;;;;;;;;;;;;;;;5096475;28;19924;-78
2022/07/27 11:35:57;;;;;;;;;;;;;;;;;;5095175;28;20015;-76
2022/07/27 11:38:23;;;;;;;;;;;;;;;;;;5096929;28;19924;-78
2022/07/27 11:40:51;;;;;;;;;;;;;;;;;;5096056;28;19982;-76
2022/07/27 11:43:33;;;;;;;;;;;;;;;;;;5096630;28;20076;-78
2022/07/27 11:46:10;;;;;;;;;;;;;;;;;;5096139;28;19997;-78
2022/07/27 11:48:37;;;;;;;;;;;;;;;;;;5096076;28;19964;-77
2022/07/27 11:51:05;;;;;;;;;;;;;;;;;;5096184;28;19944;-78
2022/07/27 11:53:31;;;;;;;;;;;;;;;;;;5096152;28;19967;-78
2022/07/27 11:55:57;;;;;;;;;;;;;;;;;;5095902;28;19967;-79
2022/07/27 11:58:24;;;;;;;;;;;;;;;;;;5095819;28;19974;-77
2022/07/27 12:00:50;;;;;;;;;;;;;;;;;;5106474;28;19977;-77
2022/07/27 12:03:20;;;;;;;;;;;;;;;;;;5116152;28;19967;-76
2022/07/27 12:05:48;;;;;;;;;;;;;;;;;;5115122;28;19967;-77
2022/07/27 12:08:16;;;;;;;;;;;;;;;;;;5115012;28;19969;-75
2022/07/27 12:10:56;;;;;;;;;;;;;;;;;;5116868;28;20336;-77
2022/07/27 12:13:23;;;;;;;;;;;;;;;;;;5116200;28;19923;-78
2022/07/27 12:15:56;;;;;;;;;;;;;;;;;;5115379;28;19969;-77
2022/07/27 12:18:22;;;;;;;;;;;;;;;;;;5113703;28;20003;-76
2022/07/27 12:20:50;;;;;;;;;;;;;;;;;;5112363;28;20011;-77
2022/07/27 12:23:18;;;;;;;;;;;;;;;;;;5112431;28;19924;-78
2022/07/27 12:25:45;;;;;;;;;;;;;;;;;;5112429;28;19923;-77
2022/07/27 12:28:14;;;;;;;;;;;;;;;;;;5111661;28;19927;-78
2022/07/27 12:30:43;;;;;;;;;;;;;;;;;;5112605;28;19980;-77
2022/07/27 12:33:26;;;;;;;;;;;;;;;;;;5112147;28;19935;-78
2022/07/27 12:35:53;;;;;;;;;;;;;;;;;;5111626;28;20309;-78
2022/07/27 12:38:21;;;;;;;;;;;;;;;;;;5111473;28;19963;-78
2022/07/27 12:40:48;;;;;;;;;;;;;;;;;;5112286;28;19984;-77
2022/07/27 12:43:16;;;;;;;;;;;;;;;;;;5112001;28;20386;-78
2022/07/27 12:45:43;;;;;;;;;;;;;;;;;;5113604;28;19928;-77
2022/07/27 12:48:10;;;;;;;;;;;;;;;;;;5114758;28;20410;-78
2022/07/27 12:50:38;;;;;;;;;;;;;;;;;;5112039;28;19924;-77
2022/07/27 12:53:04;;;;;;;;;;;;;;;;;;5112064;28;19924;-78
2022/07/27 12:55:33;;;;;;;;;;;;;;;;;;5106639;28;19962;-78
2022/07/27 12:57:59;;;;;;;;;;;;;;;;;;5111468;28;20031;-76
2022/07/27 13:00:28;;;;;;;;;;;;;;;;;;5112916;28;20018;-81
2022/07/27 13:02:54;;;;;;;;;;;;;;;;;;5112544;28;19935;-77
2022/07/27 13:05:21;;;;;;;;;;;;;;;;;;5119286;28;19928;-78
2022/07/27 13:07:47;;;;;;;;;;;;;;;;;;5114008;28;19981;-76
2022/07/27 13:10:17;;;;;;;;;;;;;;;;;;5114387;28;19924;-78
2022/07/27 13:12:45;;;;;;;;;;;;;;;;;;5119686;28;19954;-77
2022/07/27 13:15:12;;;;;;;;;;;;;;;;;;5113850;28;19928;-77
2022/07/27 13:17:39;;;;;;;;;;;;;;;;;;5111803;28;20420;-77
2022/07/27 13:20:08;;;;;;;;;;;;;;;;;;5113038;28;19948;-77
2022/07/27 13:22:35;;;;;;;;;;;;;;;;;;5113308;28;19990;-78
2022/07/27 13:25:01;;;;;;;;;;;;;;;;;;5111687;28;20476;-77
2022/07/27 13:27:28;;;;;;;;;;;;;;;;;;5112198;28;19924;-77
2022/07/27 13:29:56;;;;;;;;;;;;;;;;;;5111474;28;19924;-77
2022/07/27 13:32:22;;;;;;;;;;;;;;;;;;5111161;28;20024;-77
2022/07/27 13:34:49;;;;;;;;;;;;;;;;;;5111168;28;19924;-77
2022/07/27 13:37:16;;;;;;;;;;;;;;;;;;5111291;28;19982;-78
2022/07/27 13:39:42;;;;;;;;;;;;;;;;;;5114287;28;19928;-78
2022/07/27 13:42:09;;;;;;;;;;;;;;;;;;5114273;28;20043;-78
2022/07/27 13:44:36;;;;;;;;;;;;;;;;;;5115475;28;20396;-78
2022/07/27 13:47:05;;;;;;;;;;;;;;;;;;5114869;28;19970;-78
2022/07/27 13:49:32;;;;;;;;;;;;;;;;;;5114350;28;19924;-77
2022/07/27 13:51:58;;;;;;;;;;;;;;;;;;5114227;28;19971;-78
2022/07/27 13:54:25;;;;;;;;;;;;;;;;;;5117755;28;19955;-78
2022/07/27 13:56:51;;;;;;;;;;;;;;;;;;5119179;28;19924;-77
2022/07/27 13:59:18;;;;;;;;;;;;;;;;;;5124580;28;20012;-77
2022/07/27 14:01:44;;;;;;;;;;;;;;;;;;5103810;28;19963;-79
2022/07/27 14:04:12;;;;;;;;;;;;;;;;;;5105585;28;19928;-79
2022/07/27 14:06:40;;;;;;;;;;;;;;;;;;5101158;28;19959;-80
2022/07/27 14:09:07;;;;;;;;;;;;;;;;;;5102866;28;19924;-78
2022/07/27 14:11:34;;;;;;;;;;;;;;;;;;5098478;28;20099;-78
2022/07/27 14:14:00;;;;;;;;;;;;;;;;;;5099729;28;20232;-78
2022/07/27 14:16:27;;;;;;;;;;;;;;;;;;5099964;28;19931;-78
2022/07/27 14:18:53;;;;;;;;;;;;;;;;;;5100675;28;19951;-78
2022/07/27 14:21:21;;;;;;;;;;;;;;;;;;5096046;28;19940;-77
2022/07/27 14:23:48;;;;;;;;;;;;;;;;;;5096430;28;19932;-78
2022/07/27 14:26:15;;;;;;;;;;;;;;;;;;5096267;28;19993;-78
2022/07/27 14:28:42;;;;;;;;;;;;;;;;;;5095768;28;19924;-78
2022/07/27 14:31:09;;;;;;;;;;;;;;;;;;5095954;28;20022;-79
2022/07/27 14:33:36;;;;;;;;;;;;;;;;;;5094569;28;19978;-77
2022/07/27 14:36:03;;;;;;;;;;;;;;;;;;5093674;28;19960;-77
2022/07/27 14:38:31;;;;;;;;;;;;;;;;;;5093959;28;19974;-77
2022/07/27 14:40:57;;;;;;;;;;;;;;;;;;5094356;28;20006;-77
2022/07/27 14:43:24;;;;;;;;;;;;;;;;;;5092515;28;19936;-77
2022/07/27 14:45:50;;;;;;;;;;;;;;;;;;5097585;28;19928;-75
2022/07/27 14:48:18;;;;;;;;;;;;;;;;;;5096216;28;20414;-77
2022/07/27 14:50:45;;;;;;;;;;;;;;;;;;5096614;28;19957;-78
2022/07/27 14:53:12;;;;;;;;;;;;;;;;;;5095756;28;19931;-78
2022/07/27 14:55:41;;;;;;;;;;;;;;;;;;5095764;28;19985;-78
2022/07/27 14:58:08;;;;;;;;;;;;;;;;;;5096772;28;19924;-78
2022/07/27 15:00:35;;;;;;;;;;;;;;;;;;5106610;28;19923;-82
2022/07/27 15:03:02;;;;;;;;;;;;;;;;;;5122924;28;19923;-79
2022/07/27 15:05:30;;;;;;;;;;;;;;;;;;5123620;28;20018;-79
2022/07/27 15:07:56;;;;;;;;;;;;;;;;;;5122918;28;19930;-77
2022/07/27 15:10:23;;;;;;;;;;;;;;;;;;5125593;28;19928;-78
2022/07/27 15:12:51;;;;;;;;;;;;;;;;;;5118816;28;19983;-77
2022/07/27 15:15:18;;;;;;;;;;;;;;;;;;5116091;28;20472;-80
2022/07/27 15:17:44;;;;;;;;;;;;;;;;;;5119902;28;19924;-80
2022/07/27 15:20:11;;;;;;;;;;;;;;;;;;5117240;28;19986;-77
2022/07/27 15:22:37;;;;;;;;;;;;;;;;;;5116951;28;19982;-79
2022/07/27 15:25:04;;;;;;;;;;;;;;;;;;5118133;28;19963;-78
2022/07/27 15:27:31;;;;;;;;;;;;;;;;;;5122981;28;19924;-77
2022/07/27 15:29:59;;;;;;;;;;;;;;;;;;5124189;28;19931;-79
2022/07/27 15:32:25;;;;;;;;;;;;;;;;;;5122442;28;19967;-77
2022/07/27 15:34:52;;;;;;;;;;;;;;;;;;5123381;28;19952;-77
2022/07/27 15:37:18;;;;;;;;;;;;;;;;;;5119730;28;19935;-76
2022/07/27 15:39:46;;;;;;;;;;;;;;;;;;5123589;28;19962;-76
2022/07/27 15:42:13;;;;;;;;;;;;;;;;;;5122628;28;20074;-76
2022/07/27 15:44:40;;;;;;;;;;;;;;;;;;5122689;28;19924;-76
2022/07/27 15:47:08;;;;;;;;;;;;;;;;;;5123040;28;20521;-77
2022/07/27 15:49:34;;;;;;;;;;;;;;;;;;5118298;28;19974;-77
2022/07/27 15:52:01;;;;;;;;;;;;;;;;;;5115872;28;19970;-78
2022/07/27 15:54:28;;;;;;;;;;;;;;;;;;5114860;28;20382;-78
2022/07/27 15:56:55;;;;;;;;;;;;;;;;;;5113558;28;19955;-78
2022/07/27 15:59:21;;;;;;;;;;;;;;;;;;5118978;28;20589;-78
2022/07/27 16:01:48;;;;;;;;;;;;;;;;;;5093535;28;20402;-79
2022/07/27 16:04:16;;;;;;;;;;;;;;;;;;5093931;28;19994;-79
2022/07/27 16:06:43;;;;;;;;;;;;;;;;;;5092811;28;19924;-77
2022/07/27 16:09:10;;;;;;;;;;;;;;;;;;5093902;28;19924;-79
2022/07/27 16:11:36;;;;;;;;;;;;;;;;;;5094768;28;19931;-77
2022/07/27 16:14:03;;;;;;;;;;;;;;;;;;5097747;28;19990;-78
2022/07/27 16:16:29;;;;;;;;;;;;;;;;;;5096283;28;20020;-78
2022/07/27 16:18:57;;;;;;;;;;;;;;;;;;5095954;28;19925;-78
2022/07/27 16:21:25;;;;;;;;;;;;;;;;;;5098259;28;20025;-78
2022/07/27 16:23:52;;;;;;;;;;;;;;;;;;5100639;28;19924;-78
2022/07/27 16:26:20;;;;;;;;;;;;;;;;;;5109712;28;19963;-78
2022/07/27 16:28:48;;;;;;;;;;;;;;;;;;5097337;28;19972;-78
2022/07/27 16:31:17;;;;;;;;;;;;;;;;;;5095211;28;20027;-77
2022/07/27 16:33:44;;;;;;;;;;;;;;;;;;5093859;28;19928;-77
2022/07/27 16:36:10;;;;;;;;;;;;;;;;;;5093826;28;20399;-77
2022/07/27 16:38:39;;;;;;;;;;;;;;;;;;5093793;28;19936;-78
2022/07/27 16:41:06;;;;;;;;;;;;;;;;;;5097389;28;20394;-79
2022/07/27 16:43:32;;;;;;;;;;;;;;;;;;5093624;28;19924;-78
2022/07/27 16:46:01;;;;;;;;;;;;;;;;;;5093504;28;19931;-77
2022/07/27 16:48:27;;;;;;;;;;;;;;;;;;5093563;28;19924;-79
2022/07/27 16:50:54;;;;;;;;;;;;;;;;;;5093468;28;20390;-78
2022/07/27 16:53:20;;;;;;;;;;;;;;;;;;5101769;28;19967;-77
2022/07/27 16:55:48;;;;;;;;;;;;;;;;;;5100887;28;19924;-78
2022/07/27 16:58:15;;;;;;;;;;;;;;;;;;5100832;28;19924;-78